sensor_id;sensor_type;location;lat;lon;timestamp;P1;durP1;ratioP1;P2;durP2;ratioP2
70535;SDS011;58089;48.752;11.338;2022-12-07T05:02:28;20.77;;;10.25;;
70535;SDS011;58089;48.752;11.338;2022-12-07T05:04:54;19.13;;;10.60;;
70535;SDS011;58089;48.752;11.338;2022-12-07T05:07:19;22.50;;;10.90;;
70535;SDS011;58089;48.752;11.338;2022-12-07T05:09:44;19.83;;;10.73;;
70535;SDS011;58089;48.752;11.338;2022-12-07T05:12:09;18.87;;;10.47;;
70535;SDS011;58089;48.752;11.338;2022-12-07T05:14:35;18.00;;;10.40;;
70535;SDS011;58089;48.752;11.338;2022-12-07T05:17:00;18.30;;;9.93;;
70535;SDS011;58089;48.752;11.338;2022-12-07T05:19:25;20.17;;;9.33;;
70535;SDS011;58089;48.752;11.338;2022-12-07T05:21:51;17.40;;;9.03;;
70535;SDS011;58089;48.752;11.338;2022-12-07T05:24:16;19.73;;;9.80;;
70535;SDS011;58089;48.752;11.338;2022-12-07T05:26:42;20.70;;;10.68;;
70535;SDS011;58089;48.752;11.338;2022-12-07T05:29:10;18.07;;;9.30;;
70535;SDS011;58089;48.752;11.338;2022-12-07T05:31:36;17.48;;;8.90;;
70535;SDS011;58089;48.752;11.338;2022-12-07T05:34:01;20.03;;;11.43;;
70535;SDS011;58089;48.752;11.338;2022-12-07T05:36:27;18.67;;;11.37;;
70535;SDS011;58089;48.752;11.338;2022-12-07T05:38:53;18.48;;;10.38;;
70535;SDS011;58089;48.752;11.338;2022-12-07T05:41:19;18.10;;;9.80;;
70535;SDS011;58089;48.752;11.338;2022-12-07T05:44:03;18.88;;;10.57;;
70535;SDS011;58089;48.752;11.338;2022-12-07T05:46:29;20.30;;;10.23;;
70535;SDS011;58089;48.752;11.338;2022-12-07T05:48:54;17.33;;;9.43;;
70535;SDS011;58089;48.752;11.338;2022-12-07T05:51:19;18.03;;;9.73;;
70535;SDS011;58089;48.752;11.338;2022-12-07T05:53:45;18.77;;;10.07;;
70535;SDS011;58089;48.752;11.338;2022-12-07T05:56:10;18.43;;;9.67;;
70535;SDS011;58089;48.752;11.338;2022-12-07T05:58:35;18.80;;;10.13;;
70535;SDS011;58089;48.752;11.338;2022-12-07T06:01:19;18.83;;;10.05;;
70535;SDS011;58089;48.752;11.338;2022-12-07T06:03:45;18.03;;;9.10;;
70535;SDS011;58089;48.752;11.338;2022-12-07T06:06:10;21.83;;;10.52;;
70535;SDS011;58089;48.752;11.338;2022-12-07T06:08:35;19.60;;;10.07;;
70535;SDS011;58089;48.752;11.338;2022-12-07T06:11:01;18.57;;;9.17;;
70535;SDS011;58089;48.752;11.338;2022-12-07T06:13:45;17.50;;;9.43;;
70535;SDS011;58089;48.752;11.338;2022-12-07T06:16:10;18.10;;;9.40;;
70535;SDS011;58089;48.752;11.338;2022-12-07T06:18:35;17.43;;;9.17;;
70535;SDS011;58089;48.752;11.338;2022-12-07T06:21:00;17.90;;;9.73;;
70535;SDS011;58089;48.752;11.338;2022-12-07T06:23:26;16.67;;;8.73;;
70535;SDS011;58089;48.752;11.338;2022-12-07T06:25:51;16.03;;;8.70;;
70535;SDS011;58089;48.752;11.338;2022-12-07T06:28:16;18.80;;;9.53;;
70535;SDS011;58089;48.752;11.338;2022-12-07T06:30:41;17.43;;;8.70;;
70535;SDS011;58089;48.752;11.338;2022-12-07T06:33:07;15.97;;;8.77;;
70535;SDS011;58089;48.752;11.338;2022-12-07T06:35:32;19.07;;;9.77;;
70535;SDS011;58089;48.752;11.338;2022-12-07T06:37:58;17.55;;;9.27;;
70535;SDS011;58089;48.752;11.338;2022-12-07T06:40:23;17.10;;;8.27;;
70535;SDS011;58089;48.752;11.338;2022-12-07T06:42:48;15.80;;;8.80;;
70535;SDS011;58089;48.752;11.338;2022-12-07T06:45:14;18.67;;;8.30;;
70535;SDS011;58089;48.752;11.338;2022-12-07T06:47:39;16.90;;;9.63;;
70535;SDS011;58089;48.752;11.338;2022-12-07T15:11:56;18.67;;;7.75;;
70535;SDS011;58089;48.752;11.338;2022-12-07T15:14:22;13.63;;;5.70;;
70535;SDS011;58089;48.752;11.338;2022-12-07T15:16:47;11.97;;;4.93;;
70535;SDS011;58089;48.752;11.338;2022-12-07T15:19:20;10.02;;;4.60;;
70535;SDS011;58089;48.752;11.338;2022-12-07T15:21:50;10.80;;;5.43;;
70535;SDS011;58089;48.752;11.338;2022-12-07T15:24:16;11.18;;;5.03;;
70535;SDS011;58089;48.752;11.338;2022-12-07T15:26:41;12.10;;;5.77;;
70535;SDS011;58089;48.752;11.338;2022-12-07T15:29:07;10.20;;;4.70;;
70535;SDS011;58089;48.752;11.338;2022-12-07T15:31:33;9.18;;;4.60;;
70535;SDS011;58089;48.752;11.338;2022-12-07T15:33:59;10.57;;;5.17;;
70535;SDS011;58089;48.752;11.338;2022-12-07T15:36:25;12.48;;;4.88;;
70535;SDS011;58089;48.752;11.338;2022-12-07T15:38:52;8.67;;;4.33;;
70535;SDS011;58089;48.752;11.338;2022-12-07T15:41:18;9.85;;;4.75;;
70535;SDS011;58089;48.752;11.338;2022-12-07T15:43:44;11.17;;;4.77;;
70535;SDS011;58089;48.752;11.338;2022-12-07T15:46:30;13.07;;;4.85;;
70535;SDS011;58089;48.752;11.338;2022-12-07T15:49:00;10.15;;;4.90;;
70535;SDS011;58089;48.752;11.338;2022-12-07T15:51:25;11.00;;;5.17;;
70535;SDS011;58089;48.752;11.338;2022-12-07T15:53:51;12.27;;;5.85;;
70535;SDS011;58089;48.752;11.338;2022-12-07T15:56:17;8.60;;;4.43;;
70535;SDS011;58089;48.752;11.338;2022-12-07T15:58:42;10.77;;;5.22;;
70535;SDS011;58089;48.752;11.338;2022-12-07T16:01:11;34.63;;;16.13;;
70535;SDS011;58089;48.752;11.338;2022-12-07T16:03:37;21.80;;;11.85;;
70535;SDS011;58089;48.752;11.338;2022-12-07T16:06:03;15.93;;;8.67;;
70535;SDS011;58089;48.752;11.338;2022-12-07T16:08:28;13.33;;;7.30;;
70535;SDS011;58089;48.752;11.338;2022-12-07T16:10:53;12.60;;;6.80;;
70535;SDS011;58089;48.752;11.338;2022-12-07T16:13:19;13.40;;;6.80;;
70535;SDS011;58089;48.752;11.338;2022-12-07T16:15:44;11.32;;;6.53;;
70535;SDS011;58089;48.752;11.338;2022-12-07T16:18:09;11.60;;;5.90;;
70535;SDS011;58089;48.752;11.338;2022-12-07T16:20:35;11.97;;;6.50;;
70535;SDS011;58089;48.752;11.338;2022-12-07T16:23:00;10.43;;;5.80;;
70535;SDS011;58089;48.752;11.338;2022-12-07T16:25:25;10.60;;;4.83;;
70535;SDS011;58089;48.752;11.338;2022-12-07T16:27:51;10.17;;;5.63;;
70535;SDS011;58089;48.752;11.338;2022-12-07T16:30:17;9.10;;;4.53;;
70535;SDS011;58089;48.752;11.338;2022-12-07T16:32:42;11.53;;;5.93;;
70535;SDS011;58089;48.752;11.338;2022-12-07T16:35:08;12.73;;;6.33;;
70535;SDS011;58089;48.752;11.338;2022-12-07T16:37:33;14.68;;;7.45;;
70535;SDS011;58089;48.752;11.338;2022-12-07T16:39:59;11.23;;;6.17;;
70535;SDS011;58089;48.752;11.338;2022-12-07T16:42:24;10.60;;;5.53;;
70535;SDS011;58089;48.752;11.338;2022-12-07T16:44:49;8.67;;;4.60;;
70535;SDS011;58089;48.752;11.338;2022-12-07T16:47:15;9.93;;;5.10;;
70535;SDS011;58089;48.752;11.338;2022-12-07T16:49:40;12.30;;;5.90;;
70535;SDS011;58089;48.752;11.338;2022-12-07T16:52:05;11.80;;;6.03;;
70535;SDS011;58089;48.752;11.338;2022-12-07T16:54:30;12.20;;;5.87;;
70535;SDS011;58089;48.752;11.338;2022-12-07T16:56:58;11.13;;;5.15;;
70535;SDS011;58089;48.752;11.338;2022-12-07T16:59:23;11.00;;;5.93;;
70535;SDS011;58089;48.752;11.338;2022-12-07T17:01:48;12.97;;;6.80;;
70535;SDS011;58089;48.752;11.338;2022-12-07T17:04:14;12.83;;;7.77;;
70535;SDS011;58089;48.752;11.338;2022-12-07T17:06:39;14.97;;;8.00;;
70535;SDS011;58089;48.752;11.338;2022-12-07T17:09:04;17.50;;;7.63;;
70535;SDS011;58089;48.752;11.338;2022-12-07T17:11:33;13.57;;;7.25;;
70535;SDS011;58089;48.752;11.338;2022-12-07T17:13:59;14.33;;;8.17;;
70535;SDS011;58089;48.752;11.338;2022-12-07T17:16:43;13.70;;;7.05;;
70535;SDS011;58089;48.752;11.338;2022-12-07T17:19:09;10.87;;;5.20;;
70535;SDS011;58089;48.752;11.338;2022-12-07T17:21:35;11.63;;;6.65;;
70535;SDS011;58089;48.752;11.338;2022-12-07T17:24:01;18.00;;;11.40;;
70535;SDS011;58089;48.752;11.338;2022-12-07T17:26:28;15.52;;;8.18;;
70535;SDS011;58089;48.752;11.338;2022-12-07T17:28:53;10.23;;;5.43;;
70535;SDS011;58089;48.752;11.338;2022-12-07T17:31:19;9.70;;;4.77;;
70535;SDS011;58089;48.752;11.338;2022-12-07T17:33:46;8.38;;;4.35;;
70535;SDS011;58089;48.752;11.338;2022-12-07T17:38:43;9.40;;;5.30;;
70535;SDS011;58089;48.752;11.338;2022-12-07T17:43:59;11.90;;;5.55;;
70535;SDS011;58089;48.752;11.338;2022-12-07T17:46:25;17.15;;;10.88;;
70535;SDS011;58089;48.752;11.338;2022-12-07T17:48:53;13.87;;;8.00;;
70535;SDS011;58089;48.752;11.338;2022-12-07T17:51:18;14.63;;;7.15;;
70535;SDS011;58089;48.752;11.338;2022-12-07T17:54:02;11.00;;;7.70;;
70535;SDS011;58089;48.752;11.338;2022-12-07T17:56:28;13.70;;;8.00;;
70535;SDS011;58089;48.752;11.338;2022-12-07T17:58:53;10.30;;;6.13;;
70535;SDS011;58089;48.752;11.338;2022-12-07T18:01:18;12.23;;;5.67;;
70535;SDS011;58089;48.752;11.338;2022-12-07T18:03:43;10.43;;;5.10;;
70535;SDS011;58089;48.752;11.338;2022-12-07T18:06:09;12.53;;;6.27;;
70535;SDS011;58089;48.752;11.338;2022-12-07T18:08:34;11.67;;;5.30;;
70535;SDS011;58089;48.752;11.338;2022-12-07T18:11:01;10.20;;;5.90;;
70535;SDS011;58089;48.752;11.338;2022-12-07T18:13:26;11.37;;;6.10;;
70535;SDS011;58089;48.752;11.338;2022-12-07T18:16:33;12.32;;;6.45;;
70535;SDS011;58089;48.752;11.338;2022-12-07T18:18:53;15.02;;;6.95;;
70535;SDS011;58089;48.752;11.338;2022-12-07T18:21:22;14.83;;;7.73;;
70535;SDS011;58089;48.752;11.338;2022-12-07T18:23:51;12.45;;;6.78;;
70535;SDS011;58089;48.752;11.338;2022-12-07T18:26:18;11.45;;;6.57;;
70535;SDS011;58089;48.752;11.338;2022-12-07T18:28:44;13.30;;;6.43;;
70535;SDS011;58089;48.752;11.338;2022-12-07T18:31:10;13.97;;;6.80;;
70535;SDS011;58089;48.752;11.338;2022-12-07T18:33:36;12.55;;;6.60;;
70535;SDS011;58089;48.752;11.338;2022-12-07T18:36:02;13.97;;;6.60;;
70535;SDS011;58089;48.752;11.338;2022-12-07T18:38:28;11.63;;;6.53;;
70535;SDS011;58089;48.752;11.338;2022-12-07T18:40:54;11.93;;;5.83;;
70535;SDS011;58089;48.752;11.338;2022-12-07T18:43:19;13.75;;;6.88;;
70535;SDS011;58089;48.752;11.338;2022-12-07T18:45:45;12.53;;;6.10;;
70535;SDS011;58089;48.752;11.338;2022-12-07T18:48:12;13.07;;;6.78;;
70535;SDS011;58089;48.752;11.338;2022-12-07T18:50:37;12.77;;;6.90;;
70535;SDS011;58089;48.752;11.338;2022-12-07T18:53:03;11.03;;;6.20;;
70535;SDS011;58089;48.752;11.338;2022-12-07T18:55:29;13.43;;;6.97;;
70535;SDS011;58089;48.752;11.338;2022-12-07T18:57:55;13.38;;;7.53;;
70535;SDS011;58089;48.752;11.338;2022-12-07T19:00:21;12.57;;;6.53;;
70535;SDS011;58089;48.752;11.338;2022-12-07T19:02:47;11.20;;;6.22;;
70535;SDS011;58089;48.752;11.338;2022-12-07T19:05:13;16.05;;;9.77;;
70535;SDS011;58089;48.752;11.338;2022-12-07T19:07:38;12.70;;;6.90;;
70535;SDS011;58089;48.752;11.338;2022-12-07T19:10:04;43.63;;;23.57;;
70535;SDS011;58089;48.752;11.338;2022-12-07T19:12:32;71.40;;;36.55;;
70535;SDS011;58089;48.752;11.338;2022-12-07T19:14:57;24.20;;;13.30;;
70535;SDS011;58089;48.752;11.338;2022-12-07T19:17:22;13.53;;;7.33;;
70535;SDS011;58089;48.752;11.338;2022-12-07T19:19:47;12.15;;;6.47;;
70535;SDS011;58089;48.752;11.338;2022-12-07T19:22:14;12.20;;;6.50;;
70535;SDS011;58089;48.752;11.338;2022-12-07T19:24:41;12.67;;;6.70;;
70535;SDS011;58089;48.752;11.338;2022-12-07T19:27:08;14.75;;;7.00;;
70535;SDS011;58089;48.752;11.338;2022-12-07T19:29:33;14.13;;;7.43;;
70535;SDS011;58089;48.752;11.338;2022-12-07T19:31:59;13.50;;;7.40;;
70535;SDS011;58089;48.752;11.338;2022-12-07T19:34:25;14.45;;;7.65;;
70535;SDS011;58089;48.752;11.338;2022-12-07T19:36:51;17.10;;;7.87;;
70535;SDS011;58089;48.752;11.338;2022-12-07T19:39:16;13.83;;;7.20;;
70535;SDS011;58089;48.752;11.338;2022-12-07T19:41:42;15.17;;;7.60;;
70535;SDS011;58089;48.752;11.338;2022-12-07T19:46:40;14.48;;;7.85;;
70535;SDS011;58089;48.752;11.338;2022-12-07T19:49:06;15.27;;;8.10;;
70535;SDS011;58089;48.752;11.338;2022-12-07T19:51:32;13.43;;;7.47;;
70535;SDS011;58089;48.752;11.338;2022-12-07T19:53:58;13.97;;;7.27;;
70535;SDS011;58089;48.752;11.338;2022-12-07T19:56:25;14.03;;;7.03;;
70535;SDS011;58089;48.752;11.338;2022-12-07T19:58:51;14.05;;;6.80;;
70535;SDS011;58089;48.752;11.338;2022-12-07T20:01:16;14.53;;;6.87;;
70535;SDS011;58089;48.752;11.338;2022-12-07T20:03:42;12.80;;;7.37;;
70535;SDS011;58089;48.752;11.338;2022-12-07T20:06:14;15.18;;;7.47;;
70535;SDS011;58089;48.752;11.338;2022-12-07T20:08:42;27.00;;;16.48;;
70535;SDS011;58089;48.752;11.338;2022-12-07T20:11:07;27.40;;;17.13;;
70535;SDS011;58089;48.752;11.338;2022-12-07T20:13:51;28.20;;;18.65;;
70535;SDS011;58089;48.752;11.338;2022-12-07T20:16:17;27.70;;;18.17;;
70535;SDS011;58089;48.752;11.338;2022-12-07T20:18:42;20.77;;;13.23;;
70535;SDS011;58089;48.752;11.338;2022-12-07T20:21:07;16.27;;;8.77;;
70535;SDS011;58089;48.752;11.338;2022-12-07T20:23:32;14.03;;;7.27;;
70535;SDS011;58089;48.752;11.338;2022-12-07T20:26:00;13.07;;;7.37;;
70535;SDS011;58089;48.752;11.338;2022-12-07T20:28:27;12.70;;;6.10;;
70535;SDS011;58089;48.752;11.338;2022-12-07T20:30:53;17.55;;;10.52;;
70535;SDS011;58089;48.752;11.338;2022-12-07T20:33:19;15.43;;;8.70;;
70535;SDS011;58089;48.752;11.338;2022-12-07T20:35:45;13.98;;;6.88;;
70535;SDS011;58089;48.752;11.338;2022-12-07T20:38:10;13.60;;;6.80;;
70535;SDS011;58089;48.752;11.338;2022-12-07T20:40:37;13.30;;;6.82;;
70535;SDS011;58089;48.752;11.338;2022-12-07T20:43:02;12.32;;;6.20;;
70535;SDS011;58089;48.752;11.338;2022-12-07T20:45:28;12.80;;;6.77;;
70535;SDS011;58089;48.752;11.338;2022-12-07T20:47:53;15.47;;;7.50;;
70535;SDS011;58089;48.752;11.338;2022-12-07T20:50:18;12.80;;;6.77;;
70535;SDS011;58089;48.752;11.338;2022-12-07T20:52:44;14.33;;;6.60;;
70535;SDS011;58089;48.752;11.338;2022-12-07T20:55:09;13.63;;;7.17;;
70535;SDS011;58089;48.752;11.338;2022-12-07T20:57:34;14.07;;;6.70;;
70535;SDS011;58089;48.752;11.338;2022-12-07T21:00:00;13.30;;;7.50;;
70535;SDS011;58089;48.752;11.338;2022-12-07T21:02:25;13.20;;;7.10;;
70535;SDS011;58089;48.752;11.338;2022-12-07T21:04:50;15.57;;;7.32;;
70535;SDS011;58089;48.752;11.338;2022-12-07T21:07:16;13.70;;;7.57;;
70535;SDS011;58089;48.752;11.338;2022-12-07T21:09:41;15.43;;;7.43;;
70535;SDS011;58089;48.752;11.338;2022-12-07T21:12:06;15.30;;;7.50;;
70535;SDS011;58089;48.752;11.338;2022-12-07T21:14:37;13.93;;;7.28;;
70535;SDS011;58089;48.752;11.338;2022-12-07T21:17:04;17.08;;;7.88;;
70535;SDS011;58089;48.752;11.338;2022-12-07T21:19:30;16.20;;;7.23;;
70535;SDS011;58089;48.752;11.338;2022-12-07T21:21:55;15.43;;;8.00;;
70535;SDS011;58089;48.752;11.338;2022-12-07T21:24:20;14.40;;;8.03;;
70535;SDS011;58089;48.752;11.338;2022-12-07T21:26:45;14.00;;;8.13;;
70535;SDS011;58089;48.752;11.338;2022-12-07T21:29:11;12.77;;;7.20;;
70535;SDS011;58089;48.752;11.338;2022-12-07T21:31:36;15.33;;;7.97;;
70535;SDS011;58089;48.752;11.338;2022-12-07T21:34:02;16.40;;;8.90;;
70535;SDS011;58089;48.752;11.338;2022-12-07T21:36:28;26.95;;;15.40;;
70535;SDS011;58089;48.752;11.338;2022-12-07T21:38:54;32.08;;;16.40;;
70535;SDS011;58089;48.752;11.338;2022-12-07T21:41:23;22.80;;;12.27;;
70535;SDS011;58089;48.752;11.338;2022-12-07T21:43:50;17.30;;;9.43;;
70535;SDS011;58089;48.752;11.338;2022-12-07T21:46:15;14.10;;;7.73;;
70535;SDS011;58089;48.752;11.338;2022-12-07T21:48:42;16.10;;;7.88;;
70535;SDS011;58089;48.752;11.338;2022-12-07T21:51:11;14.50;;;7.23;;
70535;SDS011;58089;48.752;11.338;2022-12-07T21:53:37;13.48;;;7.10;;
70535;SDS011;58089;48.752;11.338;2022-12-07T21:56:07;15.20;;;7.45;;
70535;SDS011;58089;48.752;11.338;2022-12-07T21:58:37;12.97;;;7.37;;
70535;SDS011;58089;48.752;11.338;2022-12-07T22:01:02;13.43;;;6.73;;
70535;SDS011;58089;48.752;11.338;2022-12-07T22:03:27;15.25;;;7.30;;
70535;SDS011;58089;48.752;11.338;2022-12-07T22:05:58;15.20;;;7.67;;
70535;SDS011;58089;48.752;11.338;2022-12-07T22:08:23;13.07;;;6.90;;
70535;SDS011;58089;48.752;11.338;2022-12-07T22:10:49;14.13;;;7.23;;
70535;SDS011;58089;48.752;11.338;2022-12-07T22:13:14;13.20;;;6.97;;
70535;SDS011;58089;48.752;11.338;2022-12-07T22:15:39;14.60;;;7.73;;
70535;SDS011;58089;48.752;11.338;2022-12-07T22:18:05;14.03;;;7.20;;
70535;SDS011;58089;48.752;11.338;2022-12-07T22:20:30;15.13;;;7.90;;
70535;SDS011;58089;48.752;11.338;2022-12-07T22:22:56;13.90;;;7.53;;
70535;SDS011;58089;48.752;11.338;2022-12-07T22:25:21;17.20;;;8.30;;
70535;SDS011;58089;48.752;11.338;2022-12-07T22:27:46;15.40;;;7.50;;
70535;SDS011;58089;48.752;11.338;2022-12-07T22:30:11;13.83;;;7.73;;
70535;SDS011;58089;48.752;11.338;2022-12-07T22:32:37;15.57;;;8.63;;
70535;SDS011;58089;48.752;11.338;2022-12-07T22:35:03;16.70;;;8.87;;
70535;SDS011;58089;48.752;11.338;2022-12-07T22:37:29;14.02;;;8.48;;
70535;SDS011;58089;48.752;11.338;2022-12-07T22:39:54;17.98;;;8.75;;
70535;SDS011;58089;48.752;11.338;2022-12-07T22:42:20;16.13;;;8.60;;
70535;SDS011;58089;48.752;11.338;2022-12-07T22:44:45;14.40;;;7.97;;
70535;SDS011;58089;48.752;11.338;2022-12-07T22:47:14;16.33;;;8.30;;
70535;SDS011;58089;48.752;11.338;2022-12-07T22:49:40;15.63;;;8.25;;
70535;SDS011;58089;48.752;11.338;2022-12-07T22:52:05;17.40;;;7.90;;
70535;SDS011;58089;48.752;11.338;2022-12-07T22:54:30;16.67;;;8.43;;
70535;SDS011;58089;48.752;11.338;2022-12-07T22:56:56;17.33;;;8.33;;
70535;SDS011;58089;48.752;11.338;2022-12-07T22:59:21;16.30;;;8.55;;
